Time;durP1;ratioP1;P1;durP2;ratioP2;P2;SDS_P1;SDS_P2;PMS_P1;PMS_P2;Temp;Humidity;BMP_temperature;BMP_pressure;BME280_temperature;BME280_humidity;BME280_pressure;Samples;Min_cycle;Max_cycle;Signal;HPM_P1;HPM_P2
2023/07/26 00:01:46;;;;;;;71.65;52.10;;;27.70;99.90;;;;;;5056108;28;20026;-67
2023/07/26 00:04:13;;;;;;;66.72;45.95;;;27.70;99.90;;;;;;5055964;28;20055;-66
2023/07/26 00:06:39;;;;;;;62.88;46.88;;;27.80;99.90;;;;;;5037334;28;20117;-66
2023/07/26 00:09:08;;;;;;;65.80;47.45;;;27.80;99.90;;;;;;5035940;28;20018;-66
2023/07/26 00:11:35;;;;;;;73.45;47.05;;;27.80;99.90;;;;;;5035923;28;20057;-65
2023/07/26 00:14:03;;;;;;;220.20;150.25;;;27.90;99.90;;;;;;5035775;28;20025;-66
2023/07/26 00:16:31;;;;;;;172.82;107.25;;;27.90;99.90;;;;;;5035921;28;20108;-66
2023/07/26 00:18:58;;;;;;;79.72;54.58;;;27.90;99.90;;;;;;5035901;28;20030;-66
2023/07/26 00:21:24;;;;;;;85.13;55.50;;;27.90;99.90;;;;;;5035586;28;20083;-65
2023/07/26 00:23:51;;;;;;;67.85;48.60;;;27.90;99.90;;;;;;5035836;28;20060;-67
2023/07/26 00:26:17;;;;;;;65.85;45.35;;;28.00;99.90;;;;;;5034664;28;20029;-69
2023/07/26 00:28:44;;;;;;;61.25;43.63;;;28.10;99.90;;;;;;5035676;28;20025;-65
2023/07/26 00:31:11;;;;;;;79.93;56.88;;;28.20;99.90;;;;;;5035568;28;20025;-65
2023/07/26 00:33:37;;;;;;;64.55;45.72;;;28.20;99.90;;;;;;5035801;28;20037;-66
2023/07/26 00:36:04;;;;;;;70.53;46.97;;;28.10;99.90;;;;;;5035713;28;20033;-66
2023/07/26 00:38:30;;;;;;;74.03;54.63;;;28.00;99.90;;;;;;5035871;28;20595;-65
2023/07/26 00:40:57;;;;;;;61.85;43.70;;;28.10;99.90;;;;;;5031524;28;20029;-66
2023/07/26 00:43:23;;;;;;;69.90;46.25;;;28.10;99.90;;;;;;5024200;28;20427;-67
2023/07/26 00:45:50;;;;;;;68.72;44.20;;;28.10;99.90;;;;;;5015356;28;20033;-66
2023/07/26 00:48:17;;;;;;;65.68;42.67;;;28.20;99.90;;;;;;5015660;28;20498;-66
2023/07/26 00:50:46;;;;;;;71.80;47.83;;;28.30;99.90;;;;;;5015577;28;20044;-67
2023/07/26 00:53:14;;;;;;;69.32;45.70;;;28.30;99.90;;;;;;5015230;28;20117;-67
2023/07/26 00:55:43;;;;;;;79.22;45.08;;;28.30;99.90;;;;;;5015278;28;20034;-65
2023/07/26 00:58:11;;;;;;;80.80;56.90;;;28.30;99.90;;;;;;5015493;28;20429;-66
2023/07/26 01:00:42;;;;;;;57.20;41.05;;;28.40;99.90;;;;;;5015102;28;20438;-68
2023/07/26 01:03:09;;;;;;;58.28;39.25;;;28.40;99.90;;;;;;5015166;28;20475;-68
2023/07/26 01:05:44;;;;;;;65.78;44.00;;;28.50;99.90;;;;;;5015074;28;20084;-67
2023/07/26 01:08:26;;;;;;;63.85;42.03;;;28.60;99.90;;;;;;5015148;28;20032;-68
2023/07/26 01:11:03;;;;;;;61.03;40.92;;;28.60;99.90;;;;;;5014927;28;20479;-68
2023/07/26 01:13:59;;;;;;;63.65;40.92;;;28.70;99.90;;;;;;5014886;28;20076;-68
2023/07/26 01:16:26;;;;;;;63.17;41.60;;;28.70;99.90;;;;;;5012939;28;20166;-68
2023/07/26 01:18:53;;;;;;;59.40;39.22;;;28.70;99.90;;;;;;5015407;28;20030;-68
2023/07/26 01:21:19;;;;;;;60.47;41.80;;;28.80;99.90;;;;;;5015031;28;20115;-67
2023/07/26 01:23:46;;;;;;;55.22;37.35;;;28.80;99.90;;;;;;5014882;28;20303;-67
2023/07/26 01:26:12;;;;;;;57.28;37.45;;;28.90;99.90;;;;;;5014860;28;20087;-67
2023/07/26 01:28:39;;;;;;;53.58;37.25;;;28.90;99.90;;;;;;5014619;28;20030;-68
2023/07/26 01:31:06;;;;;;;44.45;32.15;;;29.00;99.90;;;;;;5014578;28;20128;-68
2023/07/26 01:33:35;;;;;;;42.88;33.15;;;29.00;99.90;;;;;;5014638;28;20498;-67
2023/07/26 01:36:04;;;;;;;49.17;33.05;;;29.10;99.90;;;;;;5014495;28;20099;-67
2023/07/26 01:38:31;;;;;;;46.65;33.42;;;29.10;99.90;;;;;;5014562;28;20041;-68
2023/07/26 01:40:59;;;;;;;44.58;33.42;;;29.20;99.90;;;;;;5014610;28;20033;-68
2023/07/26 01:43:26;;;;;;;41.22;31.90;;;29.30;99.90;;;;;;5014352;28;20040;-67
2023/07/26 01:45:53;;;;;;;48.47;33.97;;;29.30;99.90;;;;;;5014474;28;20026;-68
2023/07/26 01:48:20;;;;;;;42.53;32.08;;;29.30;99.90;;;;;;5014440;28;20490;-68
2023/07/26 01:50:47;;;;;;;47.03;33.00;;;29.30;99.90;;;;;;5013983;28;20398;-68
2023/07/26 01:53:13;;;;;;;45.78;31.23;;;29.40;99.90;;;;;;5014488;28;20113;-71
2023/07/26 01:55:40;;;;;;;47.95;31.40;;;29.40;99.90;;;;;;5014295;28;20125;-69
2023/07/26 01:58:06;;;;;;;37.20;26.85;;;29.50;99.90;;;;;;5014346;28;20021;-68
2023/07/26 02:00:33;;;;;;;37.25;25.98;;;29.50;99.90;;;;;;5013895;28;20076;-66
2023/07/26 02:02:59;;;;;;;33.85;25.10;;;29.60;99.90;;;;;;5014087;28;20029;-68
2023/07/26 02:05:26;;;;;;;34.15;25.10;;;29.60;99.90;;;;;;5013871;28;20135;-68
2023/07/26 02:07:52;;;;;;;35.83;24.58;;;29.60;99.90;;;;;;5014508;28;20093;-67
2023/07/26 02:10:19;;;;;;;41.97;24.45;;;29.60;99.90;;;;;;5014287;28;20018;-66
2023/07/26 02:12:45;;;;;;;36.97;24.42;;;29.60;99.90;;;;;;5014109;28;20037;-66
2023/07/26 02:15:12;;;;;;;32.83;23.40;;;29.70;99.90;;;;;;5013953;28;20026;-67
2023/07/26 02:17:38;;;;;;;32.72;22.55;;;29.70;99.90;;;;;;5013996;28;20029;-67
2023/07/26 02:20:05;;;;;;;32.45;23.00;;;29.70;99.90;;;;;;5013980;28;20030;-66
2023/07/26 02:22:32;;;;;;;67.10;50.33;;;29.70;99.90;;;;;;5013872;28;20029;-66
2023/07/26 02:24:58;;;;;;;44.78;27.95;;;29.70;99.90;;;;;;5013843;28;20026;-66
2023/07/26 02:27:25;;;;;;;45.22;30.70;;;29.80;99.90;;;;;;5014088;28;20026;-67
2023/07/26 02:29:52;;;;;;;36.35;25.92;;;29.80;99.90;;;;;;5013983;28;20534;-67
2023/07/26 02:32:18;;;;;;;42.08;27.67;;;29.90;99.90;;;;;;5013793;28;20065;-68
2023/07/26 02:34:45;;;;;;;37.10;25.27;;;29.90;99.90;;;;;;5013935;28;20045;-67
2023/07/26 02:37:11;;;;;;;32.25;21.98;;;30.00;99.90;;;;;;5013533;28;20034;-66
2023/07/26 02:39:38;;;;;;;37.60;23.45;;;30.10;99.90;;;;;;5013986;28;20022;-67
2023/07/26 02:42:04;;;;;;;45.83;31.00;;;30.10;99.90;;;;;;5013902;28;20588;-66
2023/07/26 02:44:31;;;;;;;35.80;27.33;;;30.10;99.90;;;;;;5013639;28;20033;-65
2023/07/26 02:46:58;;;;;;;33.58;23.75;;;30.20;99.90;;;;;;5013625;28;20029;-66
2023/07/26 02:49:24;;;;;;;35.38;22.85;;;30.20;99.90;;;;;;5013047;28;20108;-66
2023/07/26 02:51:51;;;;;;;31.05;22.48;;;30.30;99.90;;;;;;5013301;28;20034;-65
2023/07/26 02:54:17;;;;;;;32.72;22.27;;;30.40;99.90;;;;;;5013460;28;20105;-66
2023/07/26 02:56:44;;;;;;;25.77;18.65;;;30.40;99.90;;;;;;5013341;28;20026;-66
2023/07/26 02:59:10;;;;;;;23.25;18.27;;;30.40;99.90;;;;;;5014064;28;20427;-66
2023/07/26 03:01:37;;;;;;;25.08;19.50;;;30.50;99.90;;;;;;5013310;28;20105;-66
2023/07/26 03:04:03;;;;;;;26.20;19.23;;;30.50;99.90;;;;;;5014100;28;20493;-66
2023/07/26 03:06:30;;;;;;;28.33;19.92;;;30.50;99.90;;;;;;5013966;28;20034;-66
2023/07/26 03:08:56;;;;;;;29.05;19.88;;;30.60;99.90;;;;;;5013901;28;20018;-66
2023/07/26 03:11:23;;;;;;;32.53;20.23;;;30.60;99.90;;;;;;5014080;28;20275;-66
2023/07/26 03:13:49;;;;;;;29.95;19.38;;;30.60;99.90;;;;;;5013977;28;20036;-65
2023/07/26 03:16:17;;;;;;;23.98;19.58;;;30.70;99.90;;;;;;5029044;28;20030;-65
2023/07/26 03:18:44;;;;;;;27.17;19.83;;;30.80;99.90;;;;;;5033620;28;20065;-65
2023/07/26 03:21:10;;;;;;;30.33;21.55;;;30.80;99.90;;;;;;5034013;28;20033;-65
2023/07/26 03:23:38;;;;;;;26.50;20.02;;;30.90;99.90;;;;;;5034201;28;20381;-65
2023/07/26 03:26:04;;;;;;;31.92;20.88;;;30.90;99.90;;;;;;5033770;28;20117;-65
2023/07/26 03:28:31;;;;;;;29.52;19.38;;;31.00;99.90;;;;;;5033986;28;20017;-65
2023/07/26 03:30:57;;;;;;;23.42;17.98;;;31.00;99.90;;;;;;5027641;28;20109;-65
2023/07/26 03:33:24;;;;;;;28.35;18.90;;;31.10;99.90;;;;;;5021185;28;20080;-65
2023/07/26 03:35:52;;;;;;;24.95;17.42;;;31.10;99.90;;;;;;5022533;28;20095;-67
2023/07/26 03:38:18;;;;;;;23.38;17.23;;;31.10;99.90;;;;;;5032158;28;20017;-68
2023/07/26 03:40:45;;;;;;;29.20;17.77;;;31.10;99.90;;;;;;5032300;28;20505;-68
2023/07/26 03:43:12;;;;;;;24.63;16.83;;;31.20;99.90;;;;;;5032293;28;20033;-66
2023/07/26 03:45:38;;;;;;;19.40;14.73;;;31.20;99.90;;;;;;5032379;28;20029;-66
2023/07/26 03:48:05;;;;;;;19.15;13.45;;;31.30;99.90;;;;;;5032873;28;20028;-66
2023/07/26 03:50:33;;;;;;;47.95;15.65;;;31.40;99.90;;;;;;5032360;28;20079;-66
2023/07/26 03:53:00;;;;;;;22.77;15.50;;;31.40;99.90;;;;;;5014040;28;20457;-67
2023/07/26 03:55:26;;;;;;;19.40;13.35;;;31.50;99.90;;;;;;5032204;28;20112;-66
2023/07/26 03:57:53;;;;;;;19.10;13.68;;;31.50;99.90;;;;;;5032273;28;20092;-66
2023/07/26 04:00:19;;;;;;;16.90;12.30;;;31.50;99.90;;;;;;5032342;28;20025;-66
2023/07/26 04:02:46;;;;;;;16.65;12.23;;;31.60;99.90;;;;;;5035837;28;20028;-66
2023/07/26 04:05:12;;;;;;;23.23;15.02;;;31.60;99.90;;;;;;5035766;28;20033;-68
2023/07/26 04:07:40;;;;;;;22.13;13.90;;;31.70;99.90;;;;;;5036175;28;20020;-68
2023/07/26 04:10:07;;;;;;;20.65;14.45;;;31.60;99.90;;;;;;5036833;28;20025;-68
2023/07/26 04:12:34;;;;;;;23.25;14.25;;;31.60;99.90;;;;;;5035509;28;20056;-67
2023/07/26 04:15:00;;;;;;;18.67;12.63;;;31.60;99.90;;;;;;5034312;28;20029;-67
2023/07/26 04:17:27;;;;;;;15.70;12.60;;;31.60;99.90;;;;;;5034131;28;20033;-66
2023/07/26 04:19:53;;;;;;;22.13;11.73;;;31.70;99.90;;;;;;5034131;28;20411;-66
2023/07/26 04:22:20;;;;;;;15.32;11.77;;;31.70;99.90;;;;;;5030497;28;20402;-64
2023/07/26 04:24:46;;;;;;;22.88;13.18;;;31.70;99.90;;;;;;5023782;28;20483;-68
2023/07/26 04:27:13;;;;;;;17.80;13.48;;;31.60;99.90;;;;;;5015224;28;20022;-66
2023/07/26 04:29:43;;;;;;;25.42;14.20;;;31.60;99.90;;;;;;5015404;28;20064;-67
2023/07/26 04:32:10;;;;;;;15.25;12.13;;;31.70;99.90;;;;;;5014931;28;20574;-67
2023/07/26 04:34:36;;;;;;;17.30;11.27;;;31.80;99.90;;;;;;5013719;28;20030;-66
2023/07/26 04:37:03;;;;;;;18.77;12.27;;;31.90;99.90;;;;;;5014051;28;20037;-67
2023/07/26 04:39:29;;;;;;;28.00;15.35;;;31.80;99.90;;;;;;5015181;28;20057;-67
2023/07/26 04:41:56;;;;;;;23.38;14.18;;;31.80;99.90;;;;;;5015465;28;20030;-68
2023/07/26 04:44:23;;;;;;;22.98;16.52;;;31.90;99.90;;;;;;5015646;28;20030;-67
2023/07/26 04:46:49;;;;;;;22.15;15.27;;;31.90;99.90;;;;;;5015224;28;20034;-67
2023/07/26 04:49:15;;;;;;;23.42;15.50;;;31.90;99.90;;;;;;5015486;28;20057;-67
2023/07/26 04:51:42;;;;;;;25.27;14.43;;;31.80;99.90;;;;;;5015406;28;20609;-67
2023/07/26 04:54:08;;;;;;;23.92;17.15;;;31.70;99.90;;;;;;5015654;28;20045;-67
2023/07/26 04:56:35;;;;;;;25.33;17.00;;;31.70;99.90;;;;;;5015481;28;20029;-68
2023/07/26 04:59:02;;;;;;;24.83;15.73;;;31.70;99.90;;;;;;5015356;28;20105;-70
2023/07/26 05:01:28;;;;;;;24.15;17.15;;;31.80;99.90;;;;;;5014475;28;20034;-69
2023/07/26 05:03:55;;;;;;;27.20;16.80;;;31.90;99.90;;;;;;5014887;28;20033;-68
2023/07/26 05:06:21;;;;;;;21.13;13.48;;;32.00;99.90;;;;;;5015191;28;20030;-67
2023/07/26 05:08:47;;;;;;;15.18;11.73;;;32.00;99.90;;;;;;5014923;28;20471;-70
2023/07/26 05:11:14;;;;;;;17.98;13.23;;;32.10;99.90;;;;;;5014625;28;20471;-67
2023/07/26 05:13:41;;;;;;;26.58;20.77;;;32.00;99.90;;;;;;5014894;28;20084;-69
2023/07/26 05:16:07;;;;;;;23.00;16.60;;;32.00;99.90;;;;;;5015519;28;20041;-70
2023/07/26 05:18:34;;;;;;;25.88;17.25;;;32.00;99.90;;;;;;5015956;28;20033;-70
2023/07/26 05:21:01;;;;;;;18.63;13.18;;;31.90;99.90;;;;;;5015154;28;20065;-71
2023/07/26 05:23:27;;;;;;;17.33;13.60;;;31.90;99.90;;;;;;5015015;28;20091;-69
2023/07/26 05:25:54;;;;;;;20.63;16.27;;;31.90;99.90;;;;;;5015264;28;20048;-70
2023/07/26 05:28:20;;;;;;;24.20;16.88;;;31.80;99.90;;;;;;5015106;28;20452;-70
2023/07/26 05:30:47;;;;;;;20.67;15.40;;;31.80;99.90;;;;;;5015260;28;20033;-69
2023/07/26 05:33:14;;;;;;;37.05;27.42;;;31.80;99.90;;;;;;5015210;28;20026;-70
2023/07/26 05:35:41;;;;;;;59.13;49.17;;;31.90;99.90;;;;;;5030510;28;20498;-70
2023/07/26 05:38:08;;;;;;;25.73;19.05;;;31.90;99.90;;;;;;5034106;28;20039;-70
2023/07/26 05:40:34;;;;;;;35.58;22.05;;;31.90;99.90;;;;;;5034553;28;20625;-69
2023/07/26 05:43:01;;;;;;;31.95;23.92;;;32.10;99.90;;;;;;5034773;28;20096;-69
2023/07/26 05:45:28;;;;;;;22.92;17.13;;;32.10;99.90;;;;;;5034735;28;20025;-69
2023/07/26 05:47:55;;;;;;;25.08;17.10;;;32.10;99.90;;;;;;5034460;28;20028;-71
2023/07/26 05:50:21;;;;;;;41.42;30.13;;;32.20;99.90;;;;;;5034550;28;20025;-72
2023/07/26 05:52:48;;;;;;;32.47;23.88;;;32.30;99.90;;;;;;5034238;28;20041;-70
2023/07/26 05:55:15;;;;;;;23.52;16.75;;;32.30;99.90;;;;;;5034012;28;20064;-69
2023/07/26 05:57:43;;;;;;;29.92;22.02;;;32.50;99.90;;;;;;5034544;28;20056;-71
2023/07/26 06:00:11;;;;;;;37.25;28.40;;;32.50;99.90;;;;;;5016858;28;20476;-70
2023/07/26 06:02:37;;;;;;;19.02;12.70;;;32.50;99.90;;;;;;5034016;28;20040;-71
2023/07/26 06:05:05;;;;;;;41.08;34.40;;;32.50;99.90;;;;;;5034882;28;20095;-69
2023/07/26 06:07:32;;;;;;;17.63;11.82;;;32.50;99.90;;;;;;5034765;28;20026;-69
2023/07/26 06:09:58;;;;;;;16.90;10.38;;;32.60;99.90;;;;;;5034412;28;20017;-70
2023/07/26 06:12:25;;;;;;;16.13;10.68;;;32.70;99.90;;;;;;5028448;28;20495;-71
2023/07/26 06:14:51;;;;;;;19.35;12.05;;;32.80;99.90;;;;;;5021385;28;20018;-71
2023/07/26 06:17:18;;;;;;;20.70;13.85;;;32.90;99.90;;;;;;5014033;28;20096;-70
2023/07/26 06:19:44;;;;;;;15.20;10.18;;;33.00;99.90;;;;;;5013984;28;20026;-70
2023/07/26 06:22:12;;;;;;;15.88;11.00;;;33.10;99.90;;;;;;5013886;28;20474;-71
2023/07/26 06:24:38;;;;;;;16.05;11.32;;;33.10;99.90;;;;;;5013173;28;20026;-71
2023/07/26 06:27:05;;;;;;;21.02;13.45;;;33.10;99.90;;;;;;5026022;28;20116;-70
2023/07/26 06:29:33;;;;;;;16.10;12.40;;;33.10;99.90;;;;;;5032305;28;20021;-71
2023/07/26 06:31:59;;;;;;;17.20;11.20;;;33.30;99.90;;;;;;5032593;28;20021;-71
2023/07/26 06:34:26;;;;;;;15.63;11.65;;;33.30;99.90;;;;;;5032911;28;20025;-71
2023/07/26 06:36:52;;;;;;;14.57;12.02;;;33.30;99.90;;;;;;5033008;28;20033;-71
2023/07/26 06:39:19;;;;;;;16.85;12.30;;;33.30;99.90;;;;;;5032805;28;20025;-71
2023/07/26 06:41:45;;;;;;;17.52;13.18;;;33.30;99.90;;;;;;5032784;28;20027;-71
2023/07/26 06:44:12;;;;;;;26.52;19.80;;;33.30;99.90;;;;;;5032696;28;20108;-71
2023/07/26 06:46:39;;;;;;;19.30;13.63;;;33.40;99.90;;;;;;5030178;28;20029;-70
2023/07/26 06:49:05;;;;;;;18.02;14.82;;;33.40;99.90;;;;;;5032963;28;20021;-71
2023/07/26 06:51:32;;;;;;;20.70;13.85;;;33.40;99.90;;;;;;5032746;28;20038;-70
2023/07/26 06:53:58;;;;;;;19.02;13.75;;;33.50;99.90;;;;;;5030250;28;20025;-69
2023/07/26 06:56:25;;;;;;;15.57;12.25;;;33.50;99.90;;;;;;5032749;28;20072;-70
2023/07/26 06:58:54;;;;;;;25.33;15.50;;;33.40;99.90;;;;;;5032821;28;20080;-70
2023/07/26 07:01:21;;;;;;;26.48;18.67;;;33.40;99.90;;;;;;5029121;28;20017;-69
2023/07/26 07:03:47;;;;;;;19.23;13.00;;;33.50;99.90;;;;;;5036212;28;20068;-72
2023/07/26 07:06:15;;;;;;;16.15;10.93;;;33.50;99.90;;;;;;5033125;28;20437;-71
2023/07/26 07:08:42;;;;;;;15.40;9.48;;;33.50;99.90;;;;;;5013217;28;20479;-71
2023/07/26 07:11:08;;;;;;;17.13;12.05;;;33.50;99.90;;;;;;5032173;28;20108;-71
2023/07/26 07:13:36;;;;;;;16.48;11.32;;;33.60;99.90;;;;;;5032479;28;20459;-69
2023/07/26 07:16:04;;;;;;;20.25;11.60;;;33.70;99.90;;;;;;5029723;28;20079;-69
2023/07/26 07:18:31;;;;;;;17.85;12.30;;;33.70;99.90;;;;;;5032559;28;20029;-69
2023/07/26 07:21:00;;;;;;;24.05;17.10;;;33.70;99.90;;;;;;5032596;28;20064;-69
2023/07/26 07:23:27;;;;;;;18.15;11.73;;;33.80;99.90;;;;;;5032199;28;20048;-68
2023/07/26 07:25:54;;;;;;;14.38;10.20;;;33.80;99.90;;;;;;5032476;28;20410;-69
2023/07/26 07:28:20;;;;;;;18.58;11.70;;;33.90;99.90;;;;;;5032428;28;20018;-69
2023/07/26 07:30:47;;;;;;;14.90;11.23;;;33.90;99.90;;;;;;5032032;28;20493;-67
2023/07/26 07:33:15;;;;;;;18.30;11.68;;;33.90;99.90;;;;;;5031716;28;20049;-68
2023/07/26 07:35:41;;;;;;;17.77;12.57;;;33.90;99.90;;;;;;5032898;28;20478;-68
2023/07/26 07:38:08;;;;;;;20.10;14.15;;;33.80;99.90;;;;;;5034859;28;20021;-68
2023/07/26 07:40:35;;;;;;;21.13;14.70;;;33.70;99.90;;;;;;5032245;28;20386;-67
2023/07/26 07:43:01;;;;;;;21.13;14.35;;;33.70;99.90;;;;;;5034915;28;20021;-69
2023/07/26 07:45:28;;;;;;;22.70;15.68;;;33.70;99.90;;;;;;5035478;28;20030;-69
2023/07/26 07:47:55;;;;;;;54.08;41.67;;;33.60;99.90;;;;;;5035535;28;20028;-68
2023/07/26 07:50:22;;;;;;;82.60;59.20;;;33.60;99.90;;;;;;5035924;28;20017;-72
2023/07/26 07:52:51;;;;;;;65.63;45.40;;;33.60;99.90;;;;;;5035648;28;20038;-70
2023/07/26 07:55:18;;;;;;;30.27;19.75;;;33.50;99.90;;;;;;5032839;28;20037;-70
2023/07/26 07:57:45;;;;;;;54.22;35.38;;;33.50;99.90;;;;;;5035357;28;20104;-69
2023/07/26 08:00:11;;;;;;;23.63;17.15;;;33.60;99.90;;;;;;5034985;28;20044;-67
2023/07/26 08:02:38;;;;;;;25.60;17.65;;;33.70;99.90;;;;;;5035842;28;20017;-69
2023/07/26 08:05:05;;;;;;;30.38;20.13;;;33.60;99.90;;;;;;5035888;28;20105;-67
2023/07/26 08:07:32;;;;;;;24.42;17.10;;;33.40;99.90;;;;;;5038942;28;20029;-67
2023/07/26 08:09:58;;;;;;;23.17;18.10;;;33.30;99.90;;;;;;5055591;28;20033;-68
2023/07/26 08:12:25;;;;;;;22.52;17.60;;;33.20;99.90;;;;;;5055594;28;20020;-67
2023/07/26 08:14:52;;;;;;;32.25;19.50;;;33.10;99.90;;;;;;5028427;28;20067;-69
2023/07/26 08:17:18;;;;;;;31.77;24.20;;;33.10;99.90;;;;;;5033054;28;20076;-70
2023/07/26 08:19:46;;;;;;;49.53;35.30;;;33.00;99.90;;;;;;5029883;28;20021;-69
2023/07/26 08:22:13;;;;;;;66.90;48.55;;;32.90;99.90;;;;;;5030974;28;20105;-66
2023/07/26 08:24:40;;;;;;;66.30;50.35;;;32.90;99.90;;;;;;5017885;28;20014;-69
2023/07/26 08:27:07;;;;;;;30.77;23.83;;;33.00;99.90;;;;;;5048157;28;20466;-69
2023/07/26 08:29:33;;;;;;;30.83;19.98;;;33.00;99.90;;;;;;5020336;28;20093;-69
2023/07/26 08:32:00;;;;;;;26.48;18.75;;;32.90;99.90;;;;;;5015263;28;20021;-69
2023/07/26 08:34:26;;;;;;;37.22;26.45;;;32.90;99.90;;;;;;5015816;28;20101;-69
2023/07/26 08:36:53;;;;;;;26.13;18.38;;;32.90;99.90;;;;;;5015797;28;20030;-68
2023/07/26 08:39:20;;;;;;;25.50;18.67;;;33.00;99.90;;;;;;5032055;28;20041;-67
2023/07/26 08:41:46;;;;;;;28.40;18.33;;;33.00;99.90;;;;;;5035382;28;20029;-69
2023/07/26 08:44:14;;;;;;;22.85;17.45;;;33.10;99.90;;;;;;5031989;28;20053;-69
2023/07/26 08:46:41;;;;;;;30.83;22.10;;;33.20;99.90;;;;;;5023099;28;20022;-69
2023/07/26 08:49:09;;;;;;;42.83;33.75;;;33.20;99.90;;;;;;5015540;28;20497;-69
2023/07/26 08:51:36;;;;;;;109.43;79.50;;;33.20;99.90;;;;;;5043395;28;20049;-67
2023/07/26 08:54:02;;;;;;;30.00;21.50;;;33.20;99.90;;;;;;5026411;28;20069;-66
2023/07/26 08:56:30;;;;;;;27.95;19.52;;;33.20;99.90;;;;;;5039209;28;20083;-68
2023/07/26 08:58:56;;;;;;;19.10;15.25;;;33.20;99.90;;;;;;5020225;28;20099;-68
2023/07/26 09:01:23;;;;;;;23.60;15.52;;;33.10;99.90;;;;;;5023377;28;20101;-68
2023/07/26 09:03:50;;;;;;;20.17;15.93;;;33.10;99.90;;;;;;5015421;28;20033;-68
2023/07/26 09:06:16;;;;;;;24.17;16.27;;;33.20;99.90;;;;;;5021665;28;20036;-68
2023/07/26 09:08:43;;;;;;;23.98;17.17;;;33.20;99.90;;;;;;5016580;28;20029;-68
2023/07/26 09:11:23;;;;;;;25.33;16.25;;;33.30;99.90;;;;;;5028242;28;20021;-67
2023/07/26 09:13:59;;;;;;;19.95;16.25;;;33.30;99.90;;;;;;5026112;28;20029;-69
2023/07/26 09:16:28;;;;;;;24.70;15.95;;;33.30;99.90;;;;;;5029129;28;20067;-69
2023/07/26 09:18:56;;;;;;;20.65;15.70;;;33.20;99.90;;;;;;5034487;28;20486;-69
2023/07/26 09:21:27;;;;;;;20.27;15.02;;;33.10;99.90;;;;;;5034309;28;20021;-71
2023/07/26 09:23:53;;;;;;;21.10;15.52;;;33.10;99.90;;;;;;5034202;28;20041;-70
2023/07/26 09:26:34;;;;;;;23.10;16.05;;;33.10;99.90;;;;;;5032890;28;20051;-70
2023/07/26 09:29:02;;;;;;;20.40;15.02;;;33.10;99.90;;;;;;5036472;28;20475;-68
2023/07/26 09:31:31;;;;;;;21.95;15.23;;;33.00;99.90;;;;;;5037417;28;20228;-68
2023/07/26 09:34:02;;;;;;;21.67;15.38;;;33.00;99.90;;;;;;5031223;28;20088;-68
2023/07/26 09:36:41;;;;;;;21.75;14.98;;;33.00;99.90;;;;;;5035914;28;20095;-68
2023/07/26 09:39:10;;;;;;;69.82;48.25;;;33.00;99.90;;;;;;5037453;28;20025;-67
2023/07/26 09:41:38;;;;;;;27.38;20.25;;;33.00;99.90;;;;;;5036679;28;20040;-67
2023/07/26 09:44:07;;;;;;;24.00;17.33;;;33.10;99.90;;;;;;5034832;28;20098;-69
2023/07/26 09:46:55;;;;;;;26.98;18.63;;;33.10;99.90;;;;;;5033689;28;20202;-68
2023/07/26 09:49:24;;;;;;;24.92;18.45;;;33.10;99.90;;;;;;5028080;28;20017;-68
2023/07/26 09:51:54;;;;;;;19.88;15.52;;;33.00;99.90;;;;;;5023373;28;20606;-70
2023/07/26 09:54:24;;;;;;;23.23;16.88;;;33.00;99.90;;;;;;5022456;28;20391;-68
2023/07/26 09:56:53;;;;;;;39.97;28.55;;;33.00;99.90;;;;;;5030391;28;20479;-70
2023/07/26 09:59:23;;;;;;;36.17;24.77;;;33.00;99.90;;;;;;5026748;28;20037;-67
2023/07/26 10:01:52;;;;;;;37.35;23.92;;;33.00;99.90;;;;;;5032870;28;20466;-67
2023/07/26 10:04:42;;;;;;;29.15;20.50;;;33.00;99.90;;;;;;5034115;28;20037;-70
2023/07/26 10:07:12;;;;;;;27.35;20.42;;;32.90;99.90;;;;;;5030259;28;20079;-67
2023/07/26 10:09:44;;;;;;;64.03;39.95;;;32.80;99.90;;;;;;5028815;28;20021;-68
2023/07/26 10:12:12;;;;;;;57.65;36.40;;;32.80;99.90;;;;;;5029577;28;20108;-67
2023/07/26 10:14:39;;;;;;;67.22;43.08;;;32.70;99.90;;;;;;5029461;28;20422;-69
2023/07/26 10:17:07;;;;;;;70.22;38.78;;;32.70;99.90;;;;;;5029250;28;20029;-68
2023/07/26 10:19:35;;;;;;;52.83;30.25;;;32.60;99.90;;;;;;5032519;28;20037;-68
2023/07/26 10:22:03;;;;;;;47.30;30.13;;;32.60;99.90;;;;;;5032956;28;20071;-68
2023/07/26 10:24:31;;;;;;;446.55;288.33;;;32.60;99.90;;;;;;5032905;28;20076;-68
2023/07/26 10:27:00;;;;;;;1805.43;914.35;;;32.50;99.90;;;;;;5032977;28;20479;-67
2023/07/26 10:29:27;;;;;;;1999.90;999.90;;;32.50;99.90;;;;;;5033368;28;20413;-67
2023/07/26 10:32:13;;;;;;;896.17;612.13;;;32.50;99.90;;;;;;5031364;28;20378;-68
2023/07/26 10:34:40;;;;;;;863.38;681.25;;;32.50;99.90;;;;;;5033853;28;20061;-68
2023/07/26 10:37:18;;;;;;;416.77;294.48;;;32.50;99.90;;;;;;5042912;28;20466;-66
2023/07/26 10:39:44;;;;;;;160.27;100.25;;;32.50;99.90;;;;;;5053829;28;20043;-65
2023/07/26 10:42:31;;;;;;;158.20;105.03;;;32.50;99.90;;;;;;5053770;28;20029;-66
2023/07/26 10:45:01;;;;;;;139.15;84.18;;;32.50;99.90;;;;;;5053836;28;20039;-67
2023/07/26 10:47:29;;;;;;;70.00;43.55;;;32.40;99.90;;;;;;5053985;28;20021;-68
2023/07/26 10:50:03;;;;;;;72.80;42.95;;;32.30;99.90;;;;;;5026949;28;20030;-68
2023/07/26 10:52:43;;;;;;;124.43;65.20;;;32.40;99.90;;;;;;5027062;28;20033;-66
2023/07/26 10:55:23;;;;;;;50.88;33.47;;;32.30;99.90;;;;;;5020046;28;20033;-70
2023/07/26 10:57:50;;;;;;;35.22;26.95;;;32.30;99.90;;;;;;5016028;28;20014;-68
2023/07/26 11:00:22;;;;;;;55.83;37.97;;;32.30;99.90;;;;;;5024256;28;20017;-69
2023/07/26 11:03:01;;;;;;;99.78;56.28;;;32.20;99.90;;;;;;5022243;28;20030;-69
2023/07/26 11:05:29;;;;;;;72.72;44.42;;;32.20;99.90;;;;;;5017625;28;20038;-69
2023/07/26 11:08:06;;;;;;;110.07;65.97;;;32.30;99.90;;;;;;5030738;28;20018;-70
2023/07/26 11:10:52;;;;;;;78.78;49.20;;;32.20;99.90;;;;;;5034959;28;20033;-69
2023/07/26 11:13:36;;;;;;;53.38;38.08;;;32.20;99.90;;;;;;5034270;28;20014;-67
2023/07/26 11:16:03;;;;;;;39.30;28.15;;;32.10;99.90;;;;;;5036693;28;20026;-66
2023/07/26 11:18:30;;;;;;;38.65;25.02;;;32.10;99.90;;;;;;5037107;28;20029;-67
2023/07/26 11:20:57;;;;;;;42.47;25.75;;;32.10;99.90;;;;;;5037482;28;20024;-68
2023/07/26 11:23:26;;;;;;;36.45;26.45;;;32.00;99.90;;;;;;5037457;28;20058;-69
2023/07/26 11:25:57;;;;;;;57.53;39.13;;;32.00;99.90;;;;;;5040624;28;20013;-66
2023/07/26 11:28:25;;;;;;;74.35;50.55;;;32.10;99.90;;;;;;5038303;28;20076;-67
2023/07/26 11:30:54;;;;;;;66.03;47.15;;;32.00;99.90;;;;;;5038734;28;20018;-69
2023/07/26 11:33:34;;;;;;;63.33;43.90;;;32.00;99.90;;;;;;5040146;28;20021;-67
2023/07/26 11:36:02;;;;;;;56.20;40.10;;;31.90;99.90;;;;;;5038218;28;20025;-66
2023/07/26 11:38:29;;;;;;;56.63;36.85;;;31.90;99.90;;;;;;5036825;28;20022;-67
2023/07/26 11:40:56;;;;;;;48.92;35.42;;;31.90;99.90;;;;;;5037297;28;20033;-69
2023/07/26 11:43:25;;;;;;;47.30;33.78;;;31.80;99.90;;;;;;5035175;28;20021;-68
2023/07/26 11:45:53;;;;;;;49.67;35.00;;;31.80;99.90;;;;;;5036561;28;20036;-67
2023/07/26 11:48:20;;;;;;;47.65;36.10;;;31.80;99.90;;;;;;5034754;28;20021;-68
2023/07/26 11:50:47;;;;;;;49.22;37.67;;;31.70;99.90;;;;;;5037072;28;20056;-67
2023/07/26 11:53:15;;;;;;;47.22;36.53;;;31.70;99.90;;;;;;5036365;28;20034;-69
2023/07/26 11:55:43;;;;;;;50.05;38.28;;;31.60;99.90;;;;;;5030385;28;20030;-68
2023/07/26 11:58:14;;;;;;;52.50;39.50;;;31.60;99.90;;;;;;5036873;28;20048;-67
2023/07/26 12:00:46;;;;;;;56.40;41.85;;;31.60;99.90;;;;;;5034215;28;20489;-68
2023/07/26 12:03:12;;;;;;;;;;;31.60;99.90;;;;;;5035247;28;20100;-67
2023/07/26 12:05:44;;;;;;;53.35;39.97;;;31.60;99.90;;;;;;5035523;28;20453;-69
2023/07/26 12:08:11;;;;;;;;;;;31.50;99.90;;;;;;5036175;28;20048;-66
2023/07/26 12:10:40;;;;;;;56.53;42.42;;;31.50;99.90;;;;;;5035752;28;19928;-68
2023/07/26 12:13:18;;;;;;;59.17;45.75;;;31.50;99.90;;;;;;5035177;28;20029;-68
2023/07/26 12:16:05;;;;;;;60.90;44.50;;;31.40;99.90;;;;;;5035129;28;20181;-67
2023/07/26 12:18:32;;;;;;;55.42;44.35;;;31.40;99.90;;;;;;5031989;28;20088;-67
2023/07/26 12:21:04;;;;;;;60.95;45.78;;;31.30;99.90;;;;;;5036176;28;20429;-68
2023/07/26 12:23:54;;;;;;;70.28;44.38;;;31.40;99.90;;;;;;5036492;28;20029;-67
2023/07/26 12:26:23;;;;;;;56.53;42.25;;;31.30;99.90;;;;;;5032338;28;20536;-68
2023/07/26 12:28:53;;;;;;;61.65;44.85;;;31.30;99.90;;;;;;5034995;28;20120;-67
2023/07/26 12:31:22;;;;;;;73.93;45.88;;;31.30;99.90;;;;;;5034897;28;20101;-69